Pagina principale
METAR-TAF:

METAR-TAF

Aeroporti :

Aeroporto di Erevan

Yerevan, Armenia

latitudine: 40-08-50N, longitudine: 044-23-45E, altezza: 865 m

Osservazione

Il bollettino è stato emesso 31 minuti fa, alle 06:30 UTC
Vento 3 kt da ovest, variando fra sud/sud-ovest e ovest/nord-ovest
Temperature 27°C
Umidità 39%
Pressione 1014 hPa
Visibilità 10 km o più

METAR: UDYZ 270630Z 26003KT 210V290 9999 NSC 27/12 Q1014 R09/290060 NOSIG

Ora: 11:01 (07:01 UTC)

Previsione

Il bollettino è stato emesso 1 ora e 59 minuti fa, alle 05:02 UTC
Previsione valida dal 27 alle 06 UTC al 28 alle 06 UTC
Vento 6 kt da sud
Visibilità 10 km o più
Poco nuvoloso ad un'altezza di 4000 ft
Temporaneamente
dal 27 alle 08 UTC al 27 alle 21 UTC
Vento 16 kt da direzioni variabili con raffiche fino a 26 kt
Nuvoloso ad un'altezza di 4000 ft, Cumulonembo.
temporale, pioggia debole

TAF: UDYZ 270502Z 2706/2806 19006KT 9999 FEW040 TEMPO 2708/2721 VRB16G26KT -TSRA BKN040CB

Osservazioni e previsioni meteorologiche di più di 4000 aeroporti (messaggi METAR e TAF).

Le stazioni disponibili sono rappresentate dai dischi gialli e rossi sulla carta.

Puntare il mouse per vedere il nome della stazione.

Clicca sopra per visualizzare le osservazioni e previsioni meteorologiche.

Per cambiare la mappa : fare clic sui pulsanti verdi con una croce nera per ingrandire, il pulsante verde con un trattino per diminuire, o sulla freccia verde per le mappe adiacenti.


METAR-TAF: